ABQ weather

Albuquerque International Sunport Airport
Albuquerque, New Mexico, United States

Public forecast

Using degrees Fahrenheit for public forecast. Weather courtesy of forecast.io.

METAR (pilot weather report)

Retrieved 2017/12/16 01:52 UTC (22 minutes ago):

KABQ 160152Z 17004KT 10SM CLR 03/M11 A3014 RMK AO2 SLP219 T00281111

TAF (pilot weather forecast)

Forecast is more than 12 hours old.

Retrieved 2017/12/15 00:36 UTC (1 day ago):

TAF KABQ 152334Z 1600/1624 VRB05KT P6SM SKC TEMPO 1602/1606 12006KT